createdAt,value
2023-02-11T00:01:09.146Z,116.50
2023-02-11T00:03:36.654Z,140.50
2023-02-11T00:06:06.686Z,162.75
2023-02-11T00:08:33.481Z,129.25
2023-02-11T00:11:00.310Z,150.25
2023-02-11T00:13:27.424Z,168.00
2023-02-11T00:15:55.452Z,161.75
2023-02-11T00:18:22.879Z,165.75
2023-02-11T00:20:49.774Z,170.75
2023-02-11T00:23:16.537Z,140.75
2023-02-11T00:25:45.433Z,162.00
2023-02-11T00:28:12.561Z,147.00
2023-02-11T00:30:40.951Z,152.00
2023-02-11T00:33:08.546Z,127.25
2023-02-11T00:35:38.354Z,133.25
2023-02-11T00:38:07.673Z,89.75
2023-02-11T00:40:34.520Z,100.50
2023-02-11T00:43:01.432Z,113.25
2023-02-11T00:45:28.831Z,108.00
2023-02-11T00:47:55.695Z,120.00
2023-02-11T00:50:23.004Z,104.25
2023-02-11T00:52:49.810Z,102.00
2023-02-11T00:55:17.176Z,105.00
2023-02-11T00:57:44.066Z,118.50
2023-02-11T01:00:13.830Z,115.75
2023-02-11T01:02:41.812Z,127.75
2023-02-11T01:05:10.025Z,102.00
2023-02-11T01:07:36.845Z,86.00
2023-02-11T01:10:04.472Z,75.75
2023-02-11T01:12:31.349Z,75.00
2023-02-11T01:14:58.337Z,78.25
2023-02-11T01:17:25.069Z,81.00
2023-02-11T01:19:51.842Z,94.00
2023-02-11T01:22:18.713Z,94.00
2023-02-11T01:24:47.315Z,98.75
2023-02-11T01:27:14.068Z,92.50
2023-02-11T01:29:40.863Z,114.50
2023-02-11T01:32:07.663Z,119.00
2023-02-11T01:34:34.495Z,90.50
2023-02-11T01:37:01.268Z,100.75
2023-02-11T01:39:29.295Z,109.00
2023-02-11T01:41:56.071Z,115.75
2023-02-11T01:44:29.110Z,110.50
2023-02-11T01:46:56.513Z,107.00
2023-02-11T01:49:32.224Z,94.50
2023-02-11T01:52:01.810Z,103.50
2023-02-11T01:55:01.584Z,109.00
2023-02-11T01:57:32.402Z,82.50
2023-02-11T02:00:20.430Z,90.00
2023-02-11T02:03:05.253Z,75.00
2023-02-11T02:05:43.793Z,73.50
2023-02-11T02:08:26.024Z,79.00
2023-02-11T02:10:56.591Z,74.50
2023-02-11T02:13:24.728Z,78.25
2023-02-11T02:15:59.305Z,103.25
2023-02-11T02:19:06.233Z,99.00
2023-02-11T02:22:15.233Z,82.00
2023-02-11T02:25:13.036Z,76.50
2023-02-11T02:28:05.870Z,73.00
2023-02-11T02:30:44.362Z,67.75
2023-02-11T02:33:53.320Z,70.75
2023-02-11T02:36:32.085Z,72.75
2023-02-11T02:39:13.898Z,79.00
2023-02-11T02:41:42.038Z,87.00
2023-02-11T02:44:09.421Z,77.00
2023-02-11T02:46:37.111Z,77.50
2023-02-11T02:49:11.092Z,79.00
2023-02-11T02:51:49.775Z,78.50
2023-02-11T02:54:34.456Z,87.50
2023-02-11T02:57:06.843Z,93.00
2023-02-11T03:00:19.534Z,92.50
2023-02-11T03:03:12.457Z,81.25
2023-02-11T03:06:00.465Z,78.25
2023-02-11T03:08:43.615Z,93.00
2023-02-11T03:11:12.444Z,75.50
2023-02-11T03:13:40.921Z,78.50
2023-02-11T03:16:28.502Z,84.25
2023-02-11T03:19:18.700Z,92.25
2023-02-11T03:21:47.158Z,92.50
2023-02-11T03:24:24.431Z,91.75
2023-02-11T03:26:54.915Z,99.25
2023-02-11T03:29:24.209Z,86.75
2023-02-11T03:32:17.153Z,100.00
2023-02-11T03:34:58.832Z,104.25
2023-02-11T03:37:32.693Z,112.50
2023-02-11T03:40:10.217Z,111.50
2023-02-11T03:42:59.432Z,107.75
2023-02-11T03:45:28.390Z,90.00
2023-02-11T03:48:04.039Z,92.00
2023-02-11T03:50:34.095Z,91.00
2023-02-11T03:53:02.741Z,87.25
2023-02-11T03:55:33.301Z,69.00
2023-02-11T03:58:00.154Z,62.50
2023-02-11T04:00:36.613Z,68.00
2023-02-11T04:03:04.554Z,67.00
2023-02-11T04:05:31.912Z,63.50
2023-02-11T04:07:58.751Z,67.75
2023-02-11T04:10:25.860Z,66.50
2023-02-11T04:12:52.651Z,74.00
2023-02-11T04:15:19.839Z,79.00
2023-02-11T04:17:46.767Z,104.00
2023-02-11T04:20:13.591Z,98.25
2023-02-11T04:22:40.505Z,98.50
2023-02-11T04:25:09.430Z,87.00
2023-02-11T04:27:36.837Z,78.75
2023-02-11T04:30:05.686Z,72.00
2023-02-11T04:32:32.486Z,74.00
2023-02-11T04:34:59.240Z,66.50
2023-02-11T04:37:26.015Z,77.50
2023-02-11T04:39:52.764Z,67.00
2023-02-11T04:42:19.551Z,72.00
2023-02-11T04:44:46.272Z,75.00
2023-02-11T04:47:15.616Z,64.00
2023-02-11T04:49:42.985Z,69.50
2023-02-11T04:52:09.812Z,72.00
2023-02-11T04:54:36.711Z,76.00
2023-02-11T04:57:03.610Z,82.00
2023-02-11T04:59:30.605Z,110.00
2023-02-11T05:01:57.424Z,98.50
2023-02-11T05:04:24.481Z,77.50
2023-02-11T05:06:51.292Z,80.25
2023-02-11T05:09:18.304Z,90.50
2023-02-11T05:11:45.112Z,76.50
2023-02-11T05:14:12.031Z,90.25
2023-02-11T05:16:38.905Z,85.50
2023-02-11T05:19:05.841Z,92.25
2023-02-11T05:21:32.665Z,94.25
2023-02-11T05:23:59.491Z,102.50
2023-02-11T05:26:26.905Z,94.50
2023-02-11T05:28:54.247Z,95.00
2023-02-11T05:31:21.557Z,103.50
2023-02-11T05:33:48.337Z,124.00
2023-02-11T05:36:16.914Z,96.25
2023-02-11T05:38:43.876Z,96.50
2023-02-11T05:41:11.911Z,100.50
2023-02-11T05:43:38.907Z,121.00
2023-02-11T05:46:06.810Z,111.00
2023-02-11T05:48:36.654Z,136.25
2023-02-11T05:51:04.340Z,124.00
2023-02-11T05:53:31.668Z,107.50
2023-02-11T05:55:58.513Z,127.75
2023-02-11T05:58:25.982Z,86.25
2023-02-11T06:00:52.858Z,93.00
2023-02-11T06:03:20.967Z,107.75
2023-02-11T06:05:47.994Z,93.75
2023-02-11T06:08:15.525Z,85.00
2023-02-11T06:10:45.573Z,107.50
2023-02-11T06:13:12.944Z,119.25
2023-02-11T06:15:40.297Z,138.50
2023-02-11T06:18:08.658Z,88.75
2023-02-11T06:20:35.760Z,122.75
2023-02-11T06:23:03.372Z,105.00
2023-02-11T06:25:30.130Z,128.25
2023-02-11T06:27:57.656Z,134.75
2023-02-11T06:30:25.199Z,127.00
2023-02-11T06:32:52.846Z,135.75
2023-02-11T06:35:21.418Z,126.50
2023-02-11T06:37:50.370Z,130.75
2023-02-11T06:40:17.246Z,122.25
2023-02-11T06:42:45.210Z,121.50
2023-02-11T06:45:13.830Z,169.00
2023-02-11T06:47:41.025Z,172.25
2023-02-11T06:50:11.262Z,115.50
2023-02-11T06:52:39.181Z,133.50
2023-02-11T06:55:06.508Z,139.75
2023-02-11T06:57:34.055Z,104.25
2023-02-11T07:00:01.642Z,102.75
2023-02-11T07:02:28.829Z,115.00
2023-02-11T07:04:55.607Z,124.50
2023-02-11T07:07:22.399Z,140.25
2023-02-11T07:09:49.191Z,162.00
2023-02-11T07:12:15.922Z,103.00
2023-02-11T07:14:42.783Z,85.00
2023-02-11T07:17:09.539Z,92.25
2023-02-11T07:19:36.280Z,142.25
2023-02-11T07:22:03.031Z,116.50
2023-02-11T07:24:29.906Z,118.50
2023-02-11T07:26:56.630Z,130.75
2023-02-11T07:29:23.338Z,111.25
2023-02-11T07:31:50.444Z,145.00
2023-02-11T07:34:17.427Z,132.75
2023-02-11T07:36:45.106Z,146.50
2023-02-11T07:39:12.080Z,140.00
2023-02-11T07:41:39.094Z,137.75
2023-02-11T07:44:06.451Z,148.00
2023-02-11T07:46:34.691Z,128.25
2023-02-11T07:49:01.695Z,126.75
2023-02-11T07:51:30.010Z,134.00
2023-02-11T07:53:59.131Z,155.25
2023-02-11T07:56:26.702Z,160.50
2023-02-11T07:58:54.470Z,203.25
2023-02-11T08:01:25.429Z,143.50
2023-02-11T08:03:53.021Z,132.25
2023-02-11T08:06:22.328Z,148.50
2023-02-11T08:08:49.532Z,178.75
2023-02-11T08:11:21.988Z,177.00
2023-02-11T08:13:49.092Z,146.75
2023-02-11T08:16:36.297Z,151.25
2023-02-11T08:19:14.668Z,180.00
2023-02-11T08:21:42.096Z,156.00
2023-02-11T08:24:09.534Z,169.75
2023-02-11T08:26:37.492Z,177.00
2023-02-11T08:29:09.163Z,183.25
2023-02-11T08:31:39.604Z,175.00
2023-02-11T08:34:06.997Z,177.00
2023-02-11T08:36:36.717Z,177.75
2023-02-11T08:39:22.482Z,175.00
2023-02-11T08:41:54.511Z,183.00
2023-02-11T08:44:21.918Z,202.00
2023-02-11T08:46:49.723Z,192.00
2023-02-11T08:49:17.252Z,161.00
2023-02-11T08:51:44.870Z,175.00
2023-02-11T08:54:12.165Z,207.50
2023-02-11T08:56:39.202Z,165.50
2023-02-11T08:59:07.107Z,155.50
2023-02-11T09:01:34.038Z,165.00
2023-02-11T09:04:01.232Z,193.25
2023-02-11T09:06:29.124Z,194.00
2023-02-11T09:08:58.142Z,180.50
2023-02-11T09:11:34.942Z,150.00
2023-02-11T09:14:03.051Z,187.50
2023-02-11T09:16:32.504Z,208.00
2023-02-11T09:19:01.163Z,165.50
2023-02-11T09:21:29.006Z,128.00
2023-02-11T09:23:56.641Z,151.50
2023-02-11T09:26:28.659Z,137.25
2023-02-11T09:28:56.125Z,141.00
2023-02-11T09:31:25.456Z,116.25
2023-02-11T09:33:55.427Z,116.00
2023-02-11T09:36:25.090Z,119.00
2023-02-11T09:38:52.779Z,100.00
2023-02-11T09:41:28.856Z,82.25
2023-02-11T09:43:58.694Z,70.75
2023-02-11T09:46:30.109Z,66.50
2023-02-11T09:48:57.218Z,63.25
2023-02-11T09:51:39.730Z,59.75
2023-02-11T09:54:19.542Z,57.50
2023-02-11T09:56:46.447Z,57.50
2023-02-11T09:59:16.240Z,62.25
2023-02-11T10:02:11.916Z,72.25
2023-02-11T10:04:57.263Z,75.00
2023-02-11T10:07:48.334Z,77.00
2023-02-11T10:10:56.626Z,87.00
2023-02-11T10:13:30.361Z,85.50
2023-02-11T10:16:08.937Z,106.50
2023-02-11T10:19:05.274Z,63.25
2023-02-11T10:21:37.910Z,57.00
2023-02-11T10:24:12.419Z,40.50
2023-02-11T10:26:40.788Z,68.25
2023-02-11T10:29:14.717Z,69.75
2023-02-11T10:31:45.300Z,65.50
2023-02-11T10:34:13.912Z,68.75
2023-02-11T10:36:43.380Z,69.25
2023-02-11T10:39:18.039Z,77.00
2023-02-11T10:41:58.244Z,66.00
2023-02-11T10:44:36.511Z,69.00
2023-02-11T10:47:10.281Z,62.75
2023-02-11T10:49:42.918Z,66.50
2023-02-11T10:52:24.419Z,59.50
2023-02-11T10:55:02.939Z,64.75
2023-02-11T10:57:37.455Z,64.75
2023-02-11T11:00:22.874Z,77.25
2023-02-11T11:02:56.652Z,61.25
2023-02-11T11:05:45.609Z,61.00
2023-02-11T11:08:13.354Z,60.00
2023-02-11T11:10:47.050Z,58.25
2023-02-11T11:13:34.758Z,56.25
2023-02-11T11:16:13.347Z,60.25
2023-02-11T11:18:42.133Z,61.00
2023-02-11T11:21:35.417Z,57.25
2023-02-11T11:24:20.948Z,60.50
2023-02-11T11:26:52.175Z,59.00
2023-02-11T11:29:31.222Z,55.25
2023-02-11T11:32:01.842Z,49.75
2023-02-11T11:34:32.432Z,57.00
2023-02-11T11:37:02.129Z,53.50
2023-02-11T11:39:34.984Z,47.75
2023-02-11T11:42:05.497Z,49.50
2023-02-11T11:44:34.694Z,58.00
2023-02-11T11:47:13.576Z,60.00
2023-02-11T11:49:40.390Z,54.00
2023-02-11T11:52:21.948Z,48.25
2023-02-11T11:54:58.358Z,44.00
2023-02-11T11:57:28.745Z,48.00
2023-02-11T11:59:55.904Z,55.00
2023-02-11T12:03:00.246Z,50.00
2023-02-11T12:05:45.286Z,47.50
2023-02-11T12:08:20.978Z,47.25
2023-02-11T12:11:10.952Z,51.25
2023-02-11T12:13:57.023Z,53.00
2023-02-11T12:16:42.787Z,44.00
2023-02-11T12:19:34.337Z,47.00
2023-02-11T12:22:12.784Z,46.25
2023-02-11T12:25:08.037Z,55.50
2023-02-11T12:27:34.745Z,57.00
2023-02-11T12:30:04.660Z,55.75
2023-02-11T12:32:37.036Z,77.50
2023-02-11T12:35:27.340Z,63.00
2023-02-11T12:37:54.136Z,54.50
2023-02-11T12:40:26.745Z,62.50
2023-02-11T12:43:17.186Z,62.00
2023-02-11T12:45:49.674Z,66.00
2023-02-11T12:48:22.659Z,65.75
2023-02-11T12:51:11.977Z,61.50
2023-02-11T12:54:16.114Z,58.25
2023-02-11T12:56:48.848Z,59.50
2023-02-11T12:59:26.271Z,52.00
2023-02-11T13:01:55.734Z,62.00
2023-02-11T13:04:30.944Z,60.50
2023-02-11T13:07:02.389Z,60.00
2023-02-11T13:09:37.218Z,58.75
2023-02-11T13:12:26.095Z,71.75
2023-02-11T13:14:56.551Z,59.75
2023-02-11T13:17:32.823Z,60.50
2023-02-11T13:20:05.893Z,66.00
2023-02-11T13:22:46.412Z,99.50
2023-02-11T13:25:50.224Z,73.50
2023-02-11T13:28:45.522Z,69.25
2023-02-11T13:31:14.817Z,64.75
2023-02-11T13:33:43.293Z,76.75
2023-02-11T13:36:10.001Z,68.25
2023-02-11T13:38:38.162Z,75.00
2023-02-11T13:41:20.786Z,65.00
2023-02-11T13:43:59.247Z,67.25
2023-02-11T13:46:29.134Z,67.00
2023-02-11T13:48:56.773Z,68.00
2023-02-11T13:51:39.095Z,61.50
2023-02-11T13:54:08.523Z,64.75
2023-02-11T13:56:40.830Z,64.75
2023-02-11T13:59:25.994Z,67.00
2023-02-11T14:02:35.917Z,62.25
2023-02-11T14:05:21.071Z,56.00
2023-02-11T14:08:36.325Z,56.00
2023-02-11T14:11:29.619Z,57.75
2023-02-11T14:14:14.908Z,53.50
2023-02-11T14:17:00.033Z,49.50
2023-02-11T14:19:35.879Z,56.00
2023-02-11T14:22:10.021Z,55.50
2023-02-11T14:24:36.703Z,52.50
2023-02-11T14:27:13.296Z,56.00
2023-02-11T14:30:09.405Z,50.00
2023-02-11T14:32:54.528Z,58.00
2023-02-11T14:35:39.623Z,54.00
2023-02-11T14:38:15.124Z,57.00
2023-02-11T14:41:03.272Z,57.00
2023-02-11T14:43:43.582Z,53.25
2023-02-11T14:46:10.556Z,53.75
2023-02-11T14:48:39.365Z,48.25
2023-02-11T14:51:11.354Z,48.75
2023-02-11T14:53:43.821Z,52.00
2023-02-11T14:56:28.049Z,44.25
2023-02-11T14:58:55.611Z,44.50
2023-02-11T15:01:35.470Z,51.00
2023-02-11T15:04:03.901Z,57.50
2023-02-11T15:06:38.029Z,55.75
2023-02-11T15:09:25.631Z,56.50
2023-02-11T15:11:53.305Z,56.25
2023-02-11T15:14:28.061Z,54.00
2023-02-11T15:16:58.571Z,45.25
2023-02-11T15:19:35.971Z,44.50
2023-02-11T15:22:07.155Z,50.50
2023-02-11T15:24:35.662Z,58.75
2023-02-11T15:27:03.831Z,58.75
2023-02-11T15:29:43.352Z,58.25
2023-02-11T15:32:10.240Z,59.50
2023-02-11T15:34:37.565Z,58.25
2023-02-11T15:37:04.751Z,60.00
2023-02-11T15:39:41.091Z,75.50
2023-02-11T15:42:27.492Z,107.00
2023-02-11T15:45:16.229Z,173.75
2023-02-11T15:47:49.715Z,240.25
2023-02-11T15:50:32.373Z,221.50
2023-02-11T15:53:20.985Z,334.50
2023-02-11T15:55:50.862Z,241.00
2023-02-11T15:58:18.277Z,230.50
2023-02-11T16:00:51.096Z,235.25
2023-02-11T16:03:28.756Z,195.25
2023-02-11T16:05:59.933Z,238.50
2023-02-11T16:08:29.983Z,154.50
2023-02-11T16:11:03.367Z,187.75
2023-02-11T16:13:34.528Z,168.75
2023-02-11T16:16:04.824Z,149.25
2023-02-11T16:18:40.467Z,186.00
2023-02-11T16:21:18.230Z,135.50
2023-02-11T16:23:54.465Z,213.00
2023-02-11T16:26:43.363Z,221.50
2023-02-11T16:29:37.506Z,242.00
2023-02-11T16:32:15.162Z,220.50
2023-02-11T16:34:42.064Z,189.50
2023-02-11T16:37:08.834Z,192.00
2023-02-11T16:39:35.952Z,194.50
2023-02-11T16:42:05.763Z,264.75
2023-02-11T16:44:34.905Z,240.25
2023-02-11T16:47:06.156Z,247.25
2023-02-11T16:49:37.123Z,256.75
2023-02-11T16:52:07.743Z,270.50
2023-02-11T16:54:34.572Z,240.00
2023-02-11T16:57:06.059Z,248.25
2023-02-11T16:59:34.879Z,211.75
2023-02-11T17:02:01.844Z,204.00
2023-02-11T17:04:31.531Z,266.25
2023-02-11T17:06:58.834Z,353.75
2023-02-11T17:09:30.602Z,313.00
2023-02-11T17:11:57.969Z,241.00
2023-02-11T17:14:24.777Z,272.25
2023-02-11T17:16:51.710Z,285.25
2023-02-11T17:19:23.588Z,283.75
2023-02-11T17:21:52.483Z,299.50
2023-02-11T17:24:20.660Z,319.75
2023-02-11T17:26:49.094Z,322.75
2023-02-11T17:29:25.621Z,322.25
2023-02-11T17:31:53.254Z,395.80
2023-02-11T17:34:21.636Z,371.25
2023-02-11T17:36:49.175Z,319.00
2023-02-11T17:39:16.535Z,323.00
2023-02-11T17:41:43.377Z,323.00
2023-02-11T17:44:12.410Z,258.00
2023-02-11T17:46:39.372Z,224.00
2023-02-11T17:49:06.297Z,223.25
2023-02-11T17:51:35.248Z,203.00
2023-02-11T17:54:04.990Z,197.75
2023-02-11T17:56:33.352Z,244.50
2023-02-11T17:59:02.470Z,230.25
2023-02-11T18:01:30.790Z,258.00
2023-02-11T18:03:57.687Z,229.00
2023-02-11T18:06:24.729Z,313.75
2023-02-11T18:08:51.828Z,347.25
2023-02-11T18:11:18.806Z,320.75
2023-02-11T18:13:45.708Z,331.50
2023-02-11T18:16:15.911Z,339.25
2023-02-11T18:18:43.692Z,286.50
2023-02-11T18:21:19.365Z,280.50
2023-02-11T18:23:46.995Z,249.50
2023-02-11T18:26:15.609Z,243.00
2023-02-11T18:28:45.632Z,209.50
2023-02-11T18:31:13.922Z,233.25
2023-02-11T18:33:42.702Z,239.25
2023-02-11T18:36:12.036Z,266.25
2023-02-11T18:38:41.874Z,302.25
2023-02-11T18:41:08.683Z,332.25
2023-02-11T18:43:36.371Z,355.50
2023-02-11T18:46:08.348Z,332.75
2023-02-11T18:48:35.276Z,315.75
2023-02-11T18:51:02.049Z,378.25
2023-02-11T18:53:28.838Z,329.00
2023-02-11T18:55:55.795Z,350.00
2023-02-11T18:58:22.890Z,264.00
2023-02-11T19:00:50.545Z,198.25
2023-02-11T19:03:17.618Z,172.50
2023-02-11T19:05:49.186Z,153.25
2023-02-11T19:08:17.192Z,239.50
2023-02-11T19:10:46.958Z,306.25
2023-02-11T19:13:14.158Z,304.50
2023-02-11T19:15:42.587Z,442.00
2023-02-11T19:18:10.110Z,395.50
2023-02-11T19:20:39.882Z,328.25
2023-02-11T19:23:06.735Z,330.50
2023-02-11T19:25:33.604Z,342.50
2023-02-11T19:28:00.527Z,307.25
2023-02-11T19:30:27.846Z,295.25
2023-02-11T19:32:57.166Z,243.50
2023-02-11T19:35:25.300Z,264.25
2023-02-11T19:37:52.124Z,277.25
2023-02-11T19:40:21.212Z,256.75
2023-02-11T19:42:48.246Z,315.50
2023-02-11T19:45:15.510Z,354.00
2023-02-11T19:47:42.251Z,364.00
2023-02-11T19:50:09.610Z,343.50
2023-02-11T19:52:40.785Z,329.75
2023-02-11T19:55:08.408Z,294.75
2023-02-11T19:57:37.054Z,364.25
2023-02-11T20:00:05.160Z,337.75
2023-02-11T20:02:39.565Z,316.75
2023-02-11T20:05:06.877Z,248.75
2023-02-11T20:07:33.634Z,242.00
2023-02-11T20:10:00.494Z,235.00
2023-02-11T20:12:27.374Z,208.00
2023-02-11T20:14:54.267Z,272.25
2023-02-11T20:17:21.047Z,217.50
2023-02-11T20:19:47.856Z,218.25
2023-02-11T20:22:14.700Z,215.50
2023-02-11T20:24:41.507Z,278.50
2023-02-11T20:27:10.539Z,315.50
2023-02-11T20:29:38.260Z,270.00
2023-02-11T20:32:06.453Z,241.00
2023-02-11T20:34:33.870Z,232.75
2023-02-11T20:37:00.658Z,249.00
2023-02-11T20:39:27.461Z,233.50
2023-02-11T20:41:54.880Z,272.00
2023-02-11T20:44:22.536Z,196.50
2023-02-11T20:46:51.368Z,176.50
2023-02-11T20:49:21.479Z,171.00
2023-02-11T20:51:49.155Z,176.50
2023-02-11T20:54:18.429Z,186.00
2023-02-11T20:56:48.078Z,261.00
2023-02-11T20:59:16.654Z,286.00
2023-02-11T21:01:48.115Z,313.25
2023-02-11T21:04:18.088Z,275.25
2023-02-11T21:06:48.169Z,250.75
2023-02-11T21:09:19.816Z,251.50
2023-02-11T21:11:47.668Z,259.25
2023-02-11T21:14:15.154Z,274.00
2023-02-11T21:16:42.302Z,270.75
2023-02-11T21:19:09.186Z,409.50
2023-02-11T21:21:38.533Z,268.25
2023-02-11T21:24:07.027Z,261.25
2023-02-11T21:26:35.491Z,268.00
2023-02-11T21:29:04.754Z,277.50
2023-02-11T21:31:34.327Z,271.00
2023-02-11T21:34:02.124Z,274.00
2023-02-11T21:36:29.788Z,288.50
2023-02-11T21:38:57.034Z,315.75
2023-02-11T21:41:24.941Z,301.50
2023-02-11T21:43:52.475Z,320.00
2023-02-11T21:46:20.468Z,341.75
2023-02-11T21:48:47.665Z,332.50
2023-02-11T21:51:17.276Z,368.50
2023-02-11T21:53:44.414Z,336.50
2023-02-11T21:56:13.980Z,319.25
2023-02-11T21:58:40.998Z,315.50
2023-02-11T22:01:15.842Z,253.25
2023-02-11T22:03:43.050Z,242.75
2023-02-11T22:06:12.546Z,220.50
2023-02-11T22:08:40.146Z,202.75
2023-02-11T22:11:09.532Z,188.00
2023-02-11T22:13:37.107Z,194.75
2023-02-11T22:16:10.595Z,196.25
2023-02-11T22:18:38.077Z,213.00
2023-02-11T22:21:10.870Z,249.75
2023-02-11T22:23:39.225Z,272.75
2023-02-11T22:26:23.926Z,231.50
2023-02-11T22:28:51.571Z,325.00
2023-02-11T22:31:25.185Z,287.50
2023-02-11T22:33:52.365Z,282.00
2023-02-11T22:36:22.466Z,272.75
2023-02-11T22:38:49.651Z,301.00
2023-02-11T22:41:17.341Z,310.50
2023-02-11T22:43:45.097Z,309.50
2023-02-11T22:46:14.433Z,330.00
2023-02-11T22:48:41.344Z,333.50
2023-02-11T22:51:14.214Z,333.00
2023-02-11T22:53:41.136Z,339.00
2023-02-11T22:56:15.018Z,370.75
2023-02-11T22:58:42.690Z,327.00
2023-02-11T23:01:10.411Z,265.00
2023-02-11T23:03:37.370Z,247.25
2023-02-11T23:06:05.065Z,256.50
2023-02-11T23:08:32.669Z,242.75
2023-02-11T23:11:11.673Z,253.75
2023-02-11T23:13:40.442Z,280.25
2023-02-11T23:16:10.213Z,285.00
2023-02-11T23:18:38.519Z,289.50
2023-02-11T23:21:11.305Z,265.75
2023-02-11T23:23:39.570Z,266.75
2023-02-11T23:26:11.113Z,277.50
2023-02-11T23:28:38.735Z,284.25
2023-02-11T23:31:25.453Z,289.50
2023-02-11T23:33:52.727Z,301.75
2023-02-11T23:36:21.455Z,230.75
2023-02-11T23:38:48.999Z,227.50
2023-02-11T23:41:16.422Z,191.50
2023-02-11T23:43:43.521Z,193.25
2023-02-11T23:46:10.968Z,209.00
2023-02-11T23:48:38.031Z,208.75
2023-02-11T23:51:05.025Z,224.75
2023-02-11T23:53:31.744Z,226.75
2023-02-11T23:55:58.611Z,222.75
2023-02-11T23:58:25.380Z,176.75
